Time;durP1;ratioP1;P1;durP2;ratioP2;P2;SDS_P1;SDS_P2;PMS_P1;PMS_P2;Temp;Humidity;BMP_temperature;BMP_pressure;BME280_temperature;BME280_humidity;BME280_pressure;Samples;Min_cycle;Max_cycle;Signal;HPM_P1;HPM_P2
2023/09/21 00:02:13;;;;;;;3.15;1.83;;;;;;;19.18;70.46;99729.31;5029213;28;20033;-62
2023/09/21 00:04:38;;;;;;;4.10;1.73;;;;;;;19.12;70.49;99734.09;5026558;28;20124;-61
2023/09/21 00:07:04;;;;;;;4.47;1.70;;;;;;;19.14;70.14;99726.97;5033869;28;20822;-62
2023/09/21 00:09:29;;;;;;;3.75;2.00;;;;;;;19.18;69.98;99725.84;5025881;28;20029;-62
2023/09/21 00:11:55;;;;;;;2.80;2.00;;;;;;;19.17;70.25;99732.03;5032991;28;20137;-62
2023/09/21 00:14:20;;;;;;;4.05;1.92;;;;;;;19.21;70.37;99728.28;5033367;28;20029;-62
2023/09/21 00:16:45;;;;;;;3.22;1.63;;;;;;;19.13;70.34;99730.50;5030853;28;20056;-61
2023/09/21 00:19:11;;;;;;;3.83;2.00;;;;;;;19.08;71.31;99746.53;5034148;28;20052;-59
2023/09/21 00:21:37;;;;;;;4.00;2.08;;;;;;;19.14;70.76;99735.69;5025021;28;20074;-58
2023/09/21 00:24:04;;;;;;;3.65;1.63;;;;;;;19.12;71.30;99728.84;5031839;28;20379;-59
2023/09/21 00:26:29;;;;;;;4.50;1.80;;;;;;;19.07;71.23;99722.09;5036922;28;20392;-58
2023/09/21 00:28:54;;;;;;;5.05;1.98;;;;;;;19.08;71.22;99720.31;5031728;28;20099;-59
2023/09/21 00:31:20;;;;;;;6.10;2.25;;;;;;;19.01;71.42;99716.38;5037508;28;20037;-58
2023/09/21 00:33:45;;;;;;;4.55;1.90;;;;;;;18.93;71.81;99710.75;5031527;28;20036;-59
2023/09/21 00:36:13;;;;;;;3.95;1.70;;;;;;;18.86;72.21;99722.50;5032799;28;20029;-58
2023/09/21 00:38:38;;;;;;;5.55;1.88;;;;;;;18.82;72.40;99713.97;5032506;28;20048;-58
2023/09/21 00:41:04;;;;;;;2.60;1.52;;;;;;;18.77;72.76;99718.63;5035466;28;20033;-58
2023/09/21 00:43:30;;;;;;;2.88;1.77;;;;;;;18.74;73.00;99712.72;5034605;28;20033;-58
2023/09/21 00:45:57;;;;;;;2.17;1.70;;;;;;;18.70;73.17;99712.06;5030558;28;20407;-59
2023/09/21 00:48:25;;;;;;;5.50;1.95;;;;;;;18.66;73.45;99710.56;5035450;28;20806;-58
2023/09/21 00:50:54;;;;;;;3.13;1.63;;;;;;;18.67;73.31;99695.72;5033789;28;20032;-58
2023/09/21 00:53:21;;;;;;;3.70;1.83;;;;;;;18.57;73.90;99705.84;5035545;28;20539;-58
2023/09/21 00:55:56;;;;;;;4.90;1.77;;;;;;;18.50;74.30;99696.66;5034901;28;20554;-59
2023/09/21 00:58:23;;;;;;;3.05;1.60;;;;;;;18.47;74.70;99702.06;5035889;28;20129;-58
2023/09/21 01:00:50;;;;;;;5.55;1.90;;;;;;;18.46;74.44;99690.75;5029389;28;20021;-59
2023/09/21 01:03:17;;;;;;;3.95;2.05;;;;;;;18.41;75.16;99695.41;5030189;28;20036;-59
2023/09/21 01:05:45;;;;;;;3.22;1.98;;;;;;;18.38;74.83;99689.50;5036711;28;20078;-58
2023/09/21 01:08:17;;;;;;;3.42;2.28;;;;;;;18.37;74.93;99682.63;5029900;28;20668;-60
2023/09/21 01:10:48;;;;;;;5.55;2.20;;;;;;;18.40;75.01;99682.44;5033710;28;20690;-60
2023/09/21 01:13:15;;;;;;;3.92;2.20;;;;;;;18.32;75.43;99685.47;5028290;28;20036;-59
2023/09/21 01:15:45;;;;;;;4.82;1.80;;;;;;;18.43;74.81;99669.19;5031696;28;20030;-58
2023/09/21 01:18:11;;;;;;;3.42;1.88;;;;;;;18.37;74.98;99672.16;5037515;28;20020;-58
2023/09/21 01:20:37;;;;;;;3.33;1.92;;;;;;;18.23;75.38;99670.31;5031299;28;20080;-58
2023/09/21 01:23:14;;;;;;;4.93;2.13;;;;;;;18.18;75.96;99681.97;5027249;28;20037;-58
2023/09/21 01:25:44;;;;;;;3.10;1.95;;;;;;;18.10;76.42;99677.19;5034153;28;20624;-58
2023/09/21 01:28:16;;;;;;;2.15;1.67;;;;;;;18.11;76.39;99671.00;5029786;28;20045;-58
2023/09/21 01:30:43;;;;;;;2.90;1.85;;;;;;;18.10;76.36;99665.88;5028329;28;20033;-58
2023/09/21 01:33:09;;;;;;;4.07;1.75;;;;;;;18.09;76.25;99656.34;5036022;28;20075;-58
2023/09/21 01:35:43;;;;;;;3.13;2.00;;;;;;;18.13;75.94;99655.25;5030522;28;20033;-58
2023/09/21 01:38:09;;;;;;;3.55;1.90;;;;;;;18.09;76.22;99656.34;5034589;28;20037;-58
2023/09/21 01:40:36;;;;;;;3.00;1.58;;;;;;;18.07;76.17;99653.81;5029694;28;20057;-59
2023/09/21 01:43:15;;;;;;;3.78;1.98;;;;;;;18.10;75.84;99637.94;5034325;28;20404;-58
2023/09/21 01:45:42;;;;;;;3.20;1.95;;;;;;;18.04;76.14;99646.16;5030082;28;20033;-59
2023/09/21 01:48:09;;;;;;;3.03;1.73;;;;;;;18.00;76.25;99639.41;5031983;28;20272;-58
2023/09/21 01:50:43;;;;;;;4.05;2.00;;;;;;;17.93;76.61;99638.88;5031838;28;20075;-58
2023/09/21 01:53:21;;;;;;;2.85;1.80;;;;;;;17.89;76.69;99644.38;5028747;28;20048;-58
2023/09/21 01:55:49;;;;;;;3.65;1.65;;;;;;;17.80;77.16;99643.09;5034270;28;20045;-58
2023/09/21 01:58:16;;;;;;;6.05;2.17;;;;;;;17.77;77.64;99642.44;5032714;28;20529;-58
2023/09/21 02:00:49;;;;;;;2.58;1.60;;;;;;;17.79;77.38;99636.19;5028357;28;20025;-59
2023/09/21 02:03:17;;;;;;;3.08;1.48;;;;;;;17.76;77.65;99630.28;5031660;28;20022;-58
2023/09/21 02:05:43;;;;;;;5.00;2.20;;;;;;;17.67;78.28;99630.78;5033951;28;20550;-59
2023/09/21 02:08:11;;;;;;;3.05;1.70;;;;;;;17.59;78.70;99626.00;5032674;28;20047;-58
2023/09/21 02:10:38;;;;;;;2.88;1.73;;;;;;;17.52;78.93;99627.25;5035153;28;20072;-58
2023/09/21 02:13:08;;;;;;;3.42;1.83;;;;;;;17.50;78.73;99630.88;5034890;28;20037;-59
2023/09/21 02:15:38;;;;;;;7.40;1.95;;;;;;;17.58;78.21;99606.00;5037195;28;20024;-59
2023/09/21 02:18:04;;;;;;;3.30;1.90;;;;;;;17.59;78.34;99612.94;5031985;28;20163;-59
2023/09/21 02:20:31;;;;;;;2.38;1.55;;;;;;;17.55;78.62;99603.56;5031951;28;20753;-58
2023/09/21 02:22:58;;;;;;;4.53;2.22;;;;;;;17.53;78.21;99600.19;5034030;28;20044;-58
2023/09/21 02:25:24;;;;;;;2.95;1.92;;;;;;;17.52;78.35;99600.25;5031335;28;20076;-58
2023/09/21 02:27:49;;;;;;;3.38;1.98;;;;;;;17.57;77.68;99591.28;5036342;28;20021;-58
2023/09/21 02:30:17;;;;;;;6.15;1.80;;;;;;;17.61;77.75;99595.38;5027653;28;20175;-58
2023/09/21 02:32:43;;;;;;;2.15;1.35;;;;;;;17.70;77.02;99581.81;5023561;28;20123;-58
2023/09/21 02:35:16;;;;;;;4.40;1.70;;;;;;;17.79;76.48;99578.66;5040565;28;20570;-58
2023/09/21 02:37:45;;;;;;;3.28;1.88;;;;;;;17.83;76.47;99577.59;5031610;28;20306;-58
2023/09/21 02:40:14;;;;;;;2.38;1.77;;;;;;;17.77;76.83;99575.31;5028595;28;20053;-58
2023/09/21 02:42:54;;;;;;;6.90;2.20;;;;;;;17.79;76.10;99557.75;5033086;28;20037;-58
2023/09/21 02:45:29;;;;;;;4.05;1.75;;;;;;;17.88;75.77;99561.66;5029101;28;20022;-58
2023/09/21 02:48:00;;;;;;;2.60;1.67;;;;;;;17.90;75.43;99547.56;5032318;28;20039;-58
2023/09/21 02:50:27;;;;;;;3.63;1.70;;;;;;;17.95;75.22;99556.00;5028953;28;20114;-58
2023/09/21 02:53:04;;;;;;;2.88;1.60;;;;;;;17.96;74.94;99546.34;5033386;28;20022;-58
2023/09/21 02:55:29;;;;;;;4.13;1.70;;;;;;;18.06;74.59;99542.28;5027456;28;20033;-58
2023/09/21 02:58:21;;;;;;;3.47;1.55;;;;;;;18.12;73.95;99528.00;5035405;28;20041;-58
2023/09/21 03:00:49;;;;;;;4.63;1.70;;;;;;;18.11;74.50;99535.00;5027845;28;20041;-58
2023/09/21 03:03:17;;;;;;;4.00;1.80;;;;;;;18.15;74.26;99539.13;5026120;28;20036;-58
2023/09/21 03:05:46;;;;;;;3.17;1.92;;;;;;;18.13;74.61;99533.16;5032000;28;20029;-58
2023/09/21 03:08:14;;;;;;;2.63;1.92;;;;;;;18.15;74.44;99528.69;5027001;28;20461;-58
2023/09/21 03:10:48;;;;;;;3.92;1.90;;;;;;;18.15;74.38;99535.69;5028034;28;20037;-58
2023/09/21 03:13:18;;;;;;;3.03;1.70;;;;;;;18.19;73.66;99518.88;5025076;28;20032;-58
2023/09/21 03:15:57;;;;;;;4.07;1.92;;;;;;;18.23;73.41;99508.13;5030126;28;20174;-58
2023/09/21 03:18:25;;;;;;;2.85;1.88;;;;;;;18.25;73.32;99511.53;5034389;28;20021;-60
2023/09/21 03:20:51;;;;;;;3.80;1.60;;;;;;;18.20;73.36;99508.31;5026242;28;20033;-58
2023/09/21 03:23:17;;;;;;;3.17;2.13;;;;;;;18.22;73.44;99505.63;5025733;28;20033;-58
2023/09/21 03:25:45;;;;;;;3.10;1.58;;;;;;;18.20;73.49;99497.00;5028637;28;20046;-58
2023/09/21 03:28:13;;;;;;;3.20;1.65;;;;;;;18.16;73.85;99509.44;5029157;28;20047;-58
2023/09/21 03:30:43;;;;;;;3.35;1.77;;;;;;;18.08;74.40;99510.84;5025836;28;20044;-58
2023/09/21 03:33:09;;;;;;;3.67;2.03;;;;;;;18.01;74.69;99507.72;5033045;28;20027;-58
2023/09/21 03:35:37;;;;;;;2.80;1.60;;;;;;;17.97;74.48;99508.84;5027541;28;20060;-58
2023/09/21 03:38:06;;;;;;;5.72;2.17;;;;;;;18.06;74.73;99503.06;5035360;28;20043;-58
2023/09/21 03:40:34;;;;;;;4.05;2.20;;;;;;;17.99;74.96;99509.56;5029867;28;20636;-58
2023/09/21 03:43:00;;;;;;;2.53;1.77;;;;;;;18.04;74.46;99498.88;5028968;28;20397;-59
2023/09/21 03:45:25;;;;;;;4.10;1.70;;;;;;;18.07;74.59;99511.75;5026044;28;20044;-58
2023/09/21 03:47:52;;;;;;;4.38;2.35;;;;;;;18.03;74.58;99505.84;5029163;28;20052;-59
2023/09/21 03:50:18;;;;;;;3.15;1.92;;;;;;;18.05;74.41;99503.16;5030097;28;20086;-58
2023/09/21 03:52:44;;;;;;;3.85;2.08;;;;;;;18.15;73.50;99478.13;5033287;28;20036;-58
2023/09/21 03:55:12;;;;;;;2.97;1.50;;;;;;;18.14;73.75;99481.69;5028320;28;20119;-58
2023/09/21 03:57:38;;;;;;;2.67;1.70;;;;;;;18.11;73.48;99477.47;5032808;28;20063;-58
2023/09/21 04:00:18;;;;;;;4.60;1.60;;;;;;;18.11;73.50;99472.25;5031955;28;20060;-58
2023/09/21 04:02:45;;;;;;;6.57;2.03;;;;;;;18.12;73.36;99470.47;5023867;28;20512;-59
2023/09/21 04:05:13;;;;;;;5.38;1.83;;;;;;;18.14;72.99;99465.97;5030877;28;20055;-67
2023/09/21 04:07:40;;;;;;;4.57;2.17;;;;;;;18.13;73.13;99459.09;5031946;28;20528;-58
2023/09/21 04:10:06;;;;;;;2.45;1.70;;;;;;;18.14;73.21;99458.97;5027925;28;20072;-58
2023/09/21 04:12:32;;;;;;;3.75;1.70;;;;;;;18.14;73.37;99463.38;5029824;28;20033;-58
2023/09/21 04:14:57;;;;;;;3.80;1.88;;;;;;;18.08;73.65;99455.91;5034229;28;20033;-58
2023/09/21 04:17:22;;;;;;;2.88;1.85;;;;;;;18.03;74.20;99461.41;5027475;28;20415;-58
2023/09/21 04:19:52;;;;;;;5.43;1.65;;;;;;;18.06;73.57;99458.63;5047080;28;20080;-58
2023/09/21 04:22:17;;;;;;;5.30;1.85;;;;;;;18.09;74.08;99457.59;5028538;28;20087;-58
2023/09/21 04:24:43;;;;;;;3.78;1.83;;;;;;;18.06;73.78;99460.38;5030507;28;20488;-59
2023/09/21 04:27:08;;;;;;;3.20;1.83;;;;;;;18.03;73.99;99460.56;5033023;28;20041;-58
2023/09/21 04:29:33;;;;;;;4.88;1.88;;;;;;;18.00;74.56;99471.19;5026553;28;20037;-58
2023/09/21 04:31:59;;;;;;;3.47;2.45;;;;;;;17.99;74.32;99472.16;5031133;28;20029;-58
2023/09/21 04:34:25;;;;;;;3.65;1.83;;;;;;;17.94;74.51;99481.09;5026991;28;20034;-58
2023/09/21 04:36:50;;;;;;;6.07;1.95;;;;;;;17.90;75.05;99483.97;5029057;28;20025;-58
2023/09/21 04:39:15;;;;;;;2.45;1.58;;;;;;;17.91;74.80;99483.03;5031370;28;20112;-58
2023/09/21 04:41:41;;;;;;;3.47;2.00;;;;;;;17.86;74.83;99478.09;5029012;28;20040;-58
2023/09/21 04:44:08;;;;;;;5.32;2.30;;;;;;;17.84;74.84;99476.47;5024434;28;20106;-60
2023/09/21 04:46:36;;;;;;;2.63;1.98;;;;;;;17.85;74.87;99483.41;5026183;28;20116;-60
2023/09/21 04:49:01;;;;;;;3.10;1.73;;;;;;;17.83;74.84;99475.63;5027934;28;20174;-60
2023/09/21 04:51:27;;;;;;;6.97;2.00;;;;;;;17.82;74.89;99475.72;5036268;28;20144;-60
2023/09/21 04:53:52;;;;;;;3.17;1.50;;;;;;;17.86;74.57;99462.41;5031680;28;20033;-60
2023/09/21 04:56:18;;;;;;;3.22;1.77;;;;;;;17.92;74.06;99448.97;5031987;28;20037;-60
2023/09/21 04:58:43;;;;;;;2.97;1.83;;;;;;;17.89;74.24;99451.78;5030093;28;20037;-60
2023/09/21 05:01:10;;;;;;;4.50;1.50;;;;;;;17.90;74.15;99450.81;5037199;28;20053;-60
2023/09/21 05:03:37;;;;;;;3.35;2.15;;;;;;;17.88;74.29;99449.25;5026916;28;20041;-59
2023/09/21 05:06:04;;;;;;;3.50;1.90;;;;;;;17.89;74.34;99449.16;5032628;28;20049;-58
2023/09/21 05:08:29;;;;;;;4.05;1.90;;;;;;;17.94;74.27;99446.25;5030178;28;20542;-58
2023/09/21 05:10:55;;;;;;;5.90;2.08;;;;;;;17.96;74.32;99452.22;5030256;28;20059;-58
2023/09/21 05:13:21;;;;;;;4.30;1.90;;;;;;;18.02;73.95;99451.06;5031224;28;20519;-58
2023/09/21 05:15:48;;;;;;;3.55;2.05;;;;;;;17.99;74.39;99454.66;5032245;28;20395;-59
2023/09/21 05:18:13;;;;;;;3.00;1.90;;;;;;;18.02;74.51;99458.91;5034824;28;20032;-58
2023/09/21 05:20:39;;;;;;;3.92;1.60;;;;;;;18.04;74.52;99457.88;5031505;28;20029;-58
2023/09/21 05:23:06;;;;;;;3.40;1.90;;;;;;;18.07;74.55;99464.69;5028467;28;20388;-58
2023/09/21 05:25:32;;;;;;;3.28;1.85;;;;;;;18.04;74.85;99467.47;5034298;28;20036;-58
2023/09/21 05:27:57;;;;;;;3.25;1.63;;;;;;;18.12;74.35;99460.88;5036650;28;20032;-58
2023/09/21 05:30:23;;;;;;;5.30;2.20;;;;;;;18.14;74.72;99473.84;5030111;28;20484;-58
2023/09/21 05:32:48;;;;;;;2.53;1.98;;;;;;;18.16;74.50;99474.59;5034360;28;20049;-58
2023/09/21 05:35:16;;;;;;;3.97;1.67;;;;;;;18.15;74.65;99480.75;5028234;28;20080;-58
2023/09/21 05:37:42;;;;;;;3.97;2.03;;;;;;;18.17;74.27;99471.88;5031643;28;20044;-58
2023/09/21 05:40:11;;;;;;;5.22;2.20;;;;;;;18.20;74.48;99478.69;5034798;28;20033;-59
2023/09/21 05:42:36;;;;;;;4.25;1.75;;;;;;;18.29;73.96;99467.69;5030087;28;20349;-58
2023/09/21 05:45:02;;;;;;;4.97;2.35;;;;;;;18.29;73.99;99473.75;5033369;28;20432;-59
2023/09/21 05:47:28;;;;;;;4.55;2.20;;;;;;;18.29;74.17;99481.59;5028548;28;20029;-58
2023/09/21 05:49:54;;;;;;;3.25;1.95;;;;;;;18.29;74.46;99484.22;5032223;28;20059;-59
2023/09/21 05:52:21;;;;;;;3.35;1.90;;;;;;;18.37;73.82;99478.56;5033584;28;20102;-58
2023/09/21 05:54:47;;;;;;;2.90;1.63;;;;;;;18.42;73.94;99486.94;5030831;28;20075;-58
2023/09/21 05:57:13;;;;;;;5.72;2.22;;;;;;;18.48;73.64;99473.50;5033158;28;20029;-58
2023/09/21 05:59:38;;;;;;;3.47;1.90;;;;;;;18.61;73.16;99463.13;5032199;28;20056;-58
2023/09/21 06:02:05;;;;;;;3.63;1.52;;;;;;;18.65;73.15;99459.38;5035737;28;20032;-58
2023/09/21 06:04:30;;;;;;;4.15;1.85;;;;;;;18.70;73.03;99462.56;5028188;28;20132;-58
2023/09/21 06:06:58;;;;;;;3.33;1.92;;;;;;;18.74;73.51;99467.50;5032856;28;20124;-58
2023/09/21 06:09:23;;;;;;;3.17;1.83;;;;;;;18.79;73.08;99468.03;5034030;28;20033;-59
2023/09/21 06:11:49;;;;;;;4.38;1.70;;;;;;;18.87;73.06;99468.44;5032561;28;20041;-59
2023/09/21 06:14:15;;;;;;;3.65;1.88;;;;;;;18.91;72.87;99463.84;5038547;28;20033;-58
2023/09/21 06:16:44;;;;;;;5.07;1.90;;;;;;;18.95;72.86;99465.34;5033105;28;20083;-58
2023/09/21 06:19:11;;;;;;;4.05;1.90;;;;;;;19.02;72.85;99469.25;5035882;28;20056;-58
2023/09/21 06:21:39;;;;;;;6.63;2.40;;;;;;;19.09;72.75;99454.00;5030884;28;20040;-58
2023/09/21 06:24:09;;;;;;;5.60;2.47;;;;;;;19.12;72.39;99448.56;5035733;28;20040;-58
2023/09/21 06:26:35;;;;;;;2.70;1.85;;;;;;;19.21;72.05;99447.94;5032769;28;20403;-58
2023/09/21 06:29:00;;;;;;;3.92;1.80;;;;;;;19.26;72.14;99441.50;5029715;28;20047;-59
2023/09/21 06:31:27;;;;;;;3.67;2.00;;;;;;;19.33;71.90;99436.69;5029709;28;20045;-58
2023/09/21 06:33:57;;;;;;;5.97;1.80;;;;;;;19.41;72.21;99444.91;5029227;28;20112;-58
2023/09/21 06:36:22;;;;;;;3.00;1.88;;;;;;;19.49;71.53;99434.75;5035289;28;20024;-58
2023/09/21 06:38:49;;;;;;;5.05;2.08;;;;;;;19.57;71.83;99442.94;5028968;28;20116;-58
2023/09/21 06:41:14;;;;;;;4.75;2.10;;;;;;;19.63;71.25;99429.44;5035156;28;20400;-58
2023/09/21 06:43:42;;;;;;;6.60;2.10;;;;;;;19.69;71.34;99434.25;5028100;28;20035;-59
2023/09/21 06:46:09;;;;;;;4.55;1.80;;;;;;;19.73;71.58;99435.75;5022155;28;20030;-58
2023/09/21 06:48:34;;;;;;;5.35;2.25;;;;;;;19.75;71.41;99417.28;5034723;28;20151;-58
2023/09/21 06:50:59;;;;;;;6.72;2.20;;;;;;;19.79;71.74;99424.88;5029984;28;20777;-58
2023/09/21 06:53:25;;;;;;;5.47;2.10;;;;;;;19.87;71.43;99430.44;5031079;28;20056;-58
2023/09/21 06:55:50;;;;;;;2.55;1.88;;;;;;;19.88;71.62;99426.88;5029146;28;20033;-59
2023/09/21 06:58:16;;;;;;;4.20;1.80;;;;;;;19.85;71.63;99424.47;5031843;28;20060;-59
2023/09/21 07:00:42;;;;;;;4.75;2.00;;;;;;;19.91;71.76;99418.81;5025711;28;20064;-59
2023/09/21 07:03:08;;;;;;;3.08;2.10;;;;;;;19.99;71.40;99423.53;5026624;28;20045;-61
2023/09/21 07:05:33;;;;;;;3.42;1.80;;;;;;;20.07;71.15;99426.44;5033836;28;20040;-62
2023/09/21 07:07:59;;;;;;;3.75;1.88;;;;;;;20.16;71.12;99421.41;5028706;28;20047;-61
2023/09/21 07:10:24;;;;;;;4.75;2.20;;;;;;;20.20;71.25;99431.72;5033595;28;20431;-61
2023/09/21 07:12:50;;;;;;;5.03;2.03;;;;;;;20.22;70.79;99427.19;5029418;28;20064;-61
2023/09/21 07:15:15;;;;;;;3.78;2.15;;;;;;;20.20;71.05;99426.47;5037223;28;20068;-62
2023/09/21 07:17:41;;;;;;;5.55;2.17;;;;;;;20.17;71.34;99443.25;5030441;28;20120;-62
2023/09/21 07:20:07;;;;;;;3.88;1.80;;;;;;;20.15;71.41;99443.38;5033667;28;20040;-60
2023/09/21 07:22:33;;;;;;;4.88;2.08;;;;;;;20.16;71.39;99447.66;5028112;28;20726;-60
2023/09/21 07:24:59;;;;;;;4.03;1.30;;;;;;;20.15;72.10;99456.50;5030705;28;20200;-60
2023/09/21 07:27:25;;;;;;;4.57;1.90;;;;;;;20.15;71.97;99453.03;5035404;28;20761;-60
2023/09/21 07:29:52;;;;;;;4.95;2.42;;;;;;;20.12;72.09;99461.94;5026826;28;20048;-60
2023/09/21 07:32:17;;;;;;;5.88;1.98;;;;;;;20.12;73.16;99474.22;5030107;28;20036;-60
2023/09/21 07:34:43;;;;;;;4.55;1.92;;;;;;;20.09;72.74;99462.16;5032802;28;20038;-60
2023/09/21 07:37:12;;;;;;;3.90;1.90;;;;;;;20.12;72.72;99472.44;5026968;28;20037;-60
2023/09/21 07:39:38;;;;;;;4.93;1.90;;;;;;;20.08;72.99;99470.97;5032547;28;20044;-60
2023/09/21 07:42:04;;;;;;;5.10;2.25;;;;;;;20.10;72.97;99466.44;5028253;28;20029;-60
2023/09/21 07:44:30;;;;;;;1.83;1.45;;;;;;;20.11;73.17;99469.91;5026787;28;20107;-60
2023/09/21 07:46:57;;;;;;;2.30;1.80;;;;;;;20.21;73.23;99464.88;5026179;28;20060;-60
2023/09/21 07:49:25;;;;;;;2.80;1.70;;;;;;;20.24;73.32;99462.06;5032322;28;20029;-60
2023/09/21 07:51:55;;;;;;;5.78;2.08;;;;;;;20.30;73.26;99462.47;5029401;28;20119;-60
2023/09/21 07:54:21;;;;;;;4.88;2.42;;;;;;;20.41;72.41;99448.59;5022373;28;20045;-60
2023/09/21 07:56:47;;;;;;;4.88;2.33;;;;;;;20.51;71.88;99433.91;5027479;28;20045;-60
2023/09/21 07:59:12;;;;;;;6.57;2.50;;;;;;;20.65;72.15;99439.84;5032782;28;20376;-60
2023/09/21 08:01:38;;;;;;;5.72;2.22;;;;;;;20.82;71.31;99419.44;5027203;28;20045;-60
2023/09/21 08:04:04;;;;;;;4.80;2.20;;;;;;;20.95;69.96;99412.38;5030338;28;20086;-60
2023/09/21 08:06:29;;;;;;;6.40;1.88;;;;;;;21.02;69.66;99409.19;5030352;28;20410;-60
2023/09/21 08:08:57;;;;;;;3.45;1.63;;;;;;;21.11;70.07;99413.78;5034010;28;20036;-60
2023/09/21 08:11:22;;;;;;;3.95;1.83;;;;;;;21.17;69.33;99415.13;5030177;28;20418;-60
2023/09/21 08:13:48;;;;;;;4.43;2.00;;;;;;;21.21;69.17;99403.44;5032014;28;20036;-60
2023/09/21 08:16:13;;;;;;;4.60;1.70;;;;;;;21.24;69.00;99404.06;5031043;28;21462;-60
2023/09/21 08:18:39;;;;;;;9.40;2.08;;;;;;;21.27;69.10;99400.34;5026512;28;20400;-60
2023/09/21 08:21:06;;;;;;;3.25;1.95;;;;;;;21.31;69.23;99408.84;5030672;28;20038;-60
2023/09/21 08:23:32;;;;;;;4.68;1.85;;;;;;;21.28;69.73;99423.88;5028426;28;20084;-60
2023/09/21 08:25:58;;;;;;;4.05;1.70;;;;;;;21.25;69.15;99418.03;5032036;28;20045;-65
2023/09/21 08:28:24;;;;;;;5.45;1.50;;;;;;;21.26;68.81;99412.66;5031881;28;20037;-59
2023/09/21 08:30:50;;;;;;;4.63;1.75;;;;;;;21.33;69.56;99427.97;5026486;28;20040;-60
2023/09/21 08:33:17;;;;;;;5.28;2.53;;;;;;;21.37;68.95;99411.88;5031788;28;20018;-60
2023/09/21 08:35:43;;;;;;;6.80;1.90;;;;;;;21.37;68.68;99411.03;5027080;28;20080;-60
2023/09/21 08:38:09;;;;;;;4.10;1.95;;;;;;;21.40;69.19;99418.69;5028104;28;20715;-60
2023/09/21 08:40:37;;;;;;;6.28;1.88;;;;;;;21.40;69.69;99423.97;5033610;28;20075;-60
2023/09/21 08:43:04;;;;;;;4.68;2.30;;;;;;;21.43;69.36;99424.56;5028800;28;20032;-61
2023/09/21 08:45:30;;;;;;;3.60;1.90;;;;;;;21.50;69.17;99423.16;5027231;28;20037;-62
2023/09/21 08:47:56;;;;;;;5.40;1.80;;;;;;;21.58;69.61;99426.06;5028624;28;20083;-62
2023/09/21 08:50:24;;;;;;;4.57;2.17;;;;;;;21.57;69.95;99434.94;5029794;28;20044;-62
2023/09/21 08:52:53;;;;;;;6.85;1.85;;;;;;;21.67;68.94;99411.41;5036415;28;20095;-62
2023/09/21 08:55:21;;;;;;;4.07;2.30;;;;;;;21.70;68.69;99405.94;5031174;28;20029;-62
2023/09/21 08:57:46;;;;;;;3.78;1.85;;;;;;;21.82;68.29;99405.81;5034382;28;20088;-62
2023/09/21 09:00:13;;;;;;;3.45;1.90;;;;;;;21.88;68.31;99404.50;5031579;28;20009;-66
2023/09/21 09:02:38;;;;;;;3.42;1.60;;;;;;;21.97;67.79;99392.47;5029266;28;20037;-66
2023/09/21 09:05:07;;;;;;;4.97;1.80;;;;;;;22.04;67.47;99397.13;5032231;28;20064;-66
2023/09/21 09:07:39;;;;;;;4.50;1.92;;;;;;;22.10;67.57;99403.72;5033379;28;20045;-66
2023/09/21 09:10:06;;;;;;;4.85;1.80;;;;;;;22.19;68.02;99408.25;5032877;28;20042;-66
2023/09/21 09:12:32;;;;;;;5.13;1.92;;;;;;;22.09;67.83;99409.91;5038139;28;20098;-66
2023/09/21 09:15:02;;;;;;;3.63;2.20;;;;;;;22.21;67.31;99401.06;5035841;28;20028;-66
2023/09/21 09:17:34;;;;;;;6.78;1.98;;;;;;;22.19;67.01;99393.31;5031296;28;20036;-66
2023/09/21 09:20:02;;;;;;;4.28;1.73;;;;;;;22.24;67.43;99406.94;5035790;28;20029;-66
2023/09/21 09:22:31;;;;;;;3.97;2.50;;;;;;;22.28;66.96;99405.75;5026911;28;20063;-66
2023/09/21 09:25:01;;;;;;;7.93;2.17;;;;;;;22.27;67.00;99401.44;5034316;28;20170;-66
2023/09/21 09:27:27;;;;;;;4.63;2.13;;;;;;;22.39;67.05;99394.41;5034112;28;20018;-66
2023/09/21 09:29:53;;;;;;;3.15;1.60;;;;;;;22.46;66.81;99400.03;5029764;28;20043;-66
2023/09/21 09:32:19;;;;;;;3.65;1.80;;;;;;;22.47;67.19;99413.09;5033055;28;20069;-66
2023/09/21 09:34:46;;;;;;;5.88;2.13;;;;;;;22.45;67.31;99411.53;5029807;28;20129;-66
2023/09/21 09:37:15;;;;;;;4.07;2.05;;;;;;;22.44;67.37;99412.50;5029924;28;20041;-66
2023/09/21 09:39:44;;;;;;;3.85;2.00;;;;;;;22.48;67.26;99401.59;5036628;28;20044;-64
2023/09/21 09:42:11;;;;;;;4.80;2.08;;;;;;;22.48;67.40;99408.66;5032561;28;20021;-66
2023/09/21 09:44:44;;;;;;;3.95;2.05;;;;;;;22.57;67.56;99410.56;5030871;28;20657;-66
2023/09/21 09:47:13;;;;;;;5.97;1.75;;;;;;;22.60;67.73;99407.69;5029581;28;20103;-66
2023/09/21 09:49:44;;;;;;;4.18;1.75;;;;;;;22.52;67.45;99410.09;5035184;28;20033;-65
2023/09/21 09:52:13;;;;;;;2.75;1.98;;;;;;;22.60;66.96;99398.00;5028615;28;20025;-65
2023/09/21 09:54:39;;;;;;;5.20;1.92;;;;;;;22.63;67.50;99405.66;5034909;28;20487;-65
2023/09/21 09:57:11;;;;;;;4.35;2.30;;;;;;;22.64;67.32;99398.59;5041313;28;20061;-65
2023/09/21 09:59:37;;;;;;;4.68;2.10;;;;;;;22.70;67.49;99398.94;5030849;28;20033;-66
2023/09/21 10:02:06;;;;;;;9.55;2.38;;;;;;;22.76;67.04;99387.06;5035734;28;20550;-65
2023/09/21 10:04:35;;;;;;;3.80;1.80;;;;;;;22.83;66.81;99370.63;5036567;28;20037;-65
2023/09/21 10:07:01;;;;;;;3.92;1.90;;;;;;;22.96;67.12;99378.41;5031981;28;20124;-66
2023/09/21 10:09:27;;;;;;;5.82;1.95;;;;;;;22.92;66.22;99365.59;5031870;28;20431;-66
2023/09/21 10:11:54;;;;;;;5.60;2.00;;;;;;;22.97;66.74;99377.44;5033178;28;20037;-66
2023/09/21 10:14:20;;;;;;;5.70;1.92;;;;;;;23.01;66.41;99378.84;5034017;28;20484;-65
2023/09/21 10:16:56;;;;;;;6.28;1.85;;;;;;;23.01;66.67;99385.91;5032575;28;20714;-66
2023/09/21 10:19:26;;;;;;;5.22;1.83;;;;;;;22.93;66.34;99368.09;5030962;28;20033;-65
2023/09/21 10:22:20;;;;;;;3.20;2.03;;;;;;;22.99;67.15;99385.22;5031466;28;20029;-66
2023/09/21 10:24:54;;;;;;;4.47;1.90;;;;;;;23.09;67.30;99380.88;5029845;28;20053;-65
2023/09/21 10:27:21;;;;;;;5.65;1.88;;;;;;;23.13;67.18;99372.56;5031879;28;20540;-66
2023/09/21 10:29:52;;;;;;;3.95;1.88;;;;;;;23.23;66.34;99360.34;5035065;28;20133;-66
2023/09/21 10:32:23;;;;;;;3.75;1.95;;;;;;;23.29;66.76;99359.00;5038735;28;20045;-66
2023/09/21 10:34:50;;;;;;;2.33;1.65;;;;;;;23.25;65.97;99345.25;5033863;28;20515;-66
2023/09/21 10:37:23;;;;;;;4.50;2.30;;;;;;;23.21;66.20;99343.84;5028625;28;20056;-65
2023/09/21 10:39:57;;;;;;;5.45;2.30;;;;;;;23.17;67.35;99366.09;5036610;28;20440;-65
2023/09/21 10:42:33;;;;;;;2.72;1.83;;;;;;;23.15;66.55;99354.03;5031816;28;20132;-66
2023/09/21 10:45:07;;;;;;;4.82;2.28;;;;;;;23.18;66.43;99351.16;5024649;28;20369;-65
2023/09/21 10:47:38;;;;;;;6.68;2.35;;;;;;;23.23;66.20;99326.09;5033859;28;20287;-65
2023/09/21 10:50:07;;;;;;;3.58;1.65;;;;;;;23.34;65.99;99325.19;5036462;28;20439;-66
2023/09/21 10:52:33;;;;;;;4.90;2.00;;;;;;;23.58;66.27;99333.69;5040016;28;20037;-65
2023/09/21 10:54:59;;;;;;;4.85;2.33;;;;;;;23.63;65.47;99313.00;5034062;28;20034;-65
2023/09/21 10:57:28;;;;;;;3.92;1.90;;;;;;;23.78;64.63;99311.69;5039925;28;20021;-65
2023/09/21 10:59:55;;;;;;;5.22;1.92;;;;;;;23.81;64.47;99300.03;5033738;28;20099;-65
2023/09/21 11:02:22;;;;;;;5.55;1.80;;;;;;;23.87;64.73;99303.00;5034641;28;20072;-66
2023/09/21 11:04:52;;;;;;;2.92;1.70;;;;;;;23.86;64.78;99295.22;5030269;28;20041;-66
2023/09/21 11:07:18;;;;;;;7.43;2.20;;;;;;;23.89;65.30;99309.00;5034411;28;20033;-66
2023/09/21 11:09:44;;;;;;;5.57;2.28;;;;;;;23.94;65.56;99314.75;5037204;28;20041;-65
2023/09/21 11:12:14;;;;;;;4.45;2.30;;;;;;;23.98;66.20;99323.25;5034210;28;20083;-66
2023/09/21 11:14:43;;;;;;;5.10;2.13;;;;;;;24.08;65.18;99304.78;5030824;28;20049;-66
2023/09/21 11:17:11;;;;;;;4.30;1.85;;;;;;;24.05;63.94;99279.47;5035780;28;20036;-65
2023/09/21 11:19:38;;;;;;;2.97;1.85;;;;;;;24.13;64.24;99284.94;5034622;28;20033;-65
2023/09/21 11:22:05;;;;;;;3.72;2.03;;;;;;;24.04;62.99;99259.34;5034104;28;20450;-65
2023/09/21 11:24:32;;;;;;;4.47;1.85;;;;;;;24.03;62.87;99259.47;5033371;28;20052;-65
2023/09/21 11:26:58;;;;;;;3.00;1.92;;;;;;;24.02;63.09;99257.81;5039211;28;20063;-65
2023/09/21 11:29:26;;;;;;;3.53;1.70;;;;;;;23.96;62.62;99244.16;5030179;28;20042;-66
2023/09/21 11:31:52;;;;;;;4.43;2.05;;;;;;;23.79;63.35;99263.25;5036638;28;20822;-65
2023/09/21 11:34:18;;;;;;;4.25;1.90;;;;;;;23.66;63.69;99256.53;5036501;28;20029;-66
2023/09/21 11:36:44;;;;;;;4.68;1.73;;;;;;;23.54;64.02;99249.66;5033752;28;20040;-65